Time;durP1;ratioP1;P1;durP2;ratioP2;P2;SDS_P1;SDS_P2;PMS_P1;PMS_P2;Temp;Humidity;BMP_temperature;BMP_pressure;BME280_temperature;BME280_humidity;BME280_pressure;Samples;Min_cycle;Max_cycle;Signal;HPM_P1;HPM_P2
2023/01/29 00:01:54;;;;;;;;;;;;;;;0.53;100.00;99592.66;4986529;28;20325;-55
2023/01/29 00:04:19;;;;;;;;;;;;;;;0.13;100.00;99589.47;4972480;28;20352;-58
2023/01/29 00:06:45;;;;;;;;;;;;;;;0.07;100.00;99600.19;4972587;28;19982;-55
2023/01/29 00:09:11;;;;;;;;;;;;;;;-0.01;100.00;99589.81;4972872;28;20302;-55
2023/01/29 00:11:37;;;;;;;;;;;;;;;-0.08;100.00;99592.88;4972695;28;19987;-55
2023/01/29 00:14:02;;;;;;;;;;;;;;;-0.14;100.00;99589.28;4970691;28;20025;-56
2023/01/29 00:16:28;;;;;;;;;;;;;;;-0.12;100.00;99583.50;4972570;28;20024;-57
2023/01/29 00:18:53;;;;;;;;;;;;;;;-0.14;100.00;99576.69;4970584;28;20081;-57
2023/01/29 00:21:20;;;;;;;;;;;;;;;-0.22;100.00;99578.91;4971649;28;20507;-57
2023/01/29 00:23:46;;;;;;;;;;;;;;;-0.30;100.00;99579.41;4987330;28;20338;-57
2023/01/29 00:26:13;;;;;;;;;;;;;;;-0.38;100.00;99589.16;4970452;28;20348;-57
2023/01/29 00:28:43;;;;;;;;;;;;;;;-0.43;100.00;99589.81;4969233;28;19983;-56
2023/01/29 00:31:15;;;;;;;;;;;;;;;-0.35;100.00;99598.53;4985201;28;20053;-57
2023/01/29 00:33:42;;;;;;;;;;;;;;;-0.29;100.00;99604.66;4985481;28;20129;-56
2023/01/29 00:36:09;;;;;;;;;;;;;;;-0.39;100.00;99604.25;4972333;28;19974;-56
2023/01/29 00:38:36;;;;;;;;;;;;;;;-0.31;100.00;99602.88;4985317;28;20009;-58
2023/01/29 00:46:34;;;;;;;;;;;;;;;-0.44;100.00;99614.13;4969332;28;20449;-55
2023/01/29 00:48:59;;;;;;;;;;;;;;;-0.51;100.00;99614.69;4970726;28;20005;-56
2023/01/29 00:51:25;;;;;;;;;;;;;;;-0.54;100.00;99617.06;4971832;28;20029;-56
2023/01/29 00:53:50;;;;;;;;;;;;;;;-0.63;100.00;99616.69;4986034;28;19986;-57
2023/01/29 00:56:15;;;;;;;;;;;;;;;-0.60;100.00;99621.88;4977969;28;20400;-56
2023/01/29 00:58:42;;;;;;;;;;;;;;;-0.65;100.00;99618.28;4972154;28;20813;-55
2023/01/29 01:01:07;;;;;;;;;;;;;;;-0.73;100.00;99612.09;4971368;28;20033;-55
2023/01/29 01:03:40;;;;;;;;;;;;;;;-0.65;100.00;99620.81;4968986;28;20002;-54
2023/01/29 01:06:08;;;;;;;;;;;;;;;-0.63;100.00;99627.63;4971306;28;20040;-55
2023/01/29 01:11:18;;;;;;;;;;;;;;;-0.70;100.00;99624.78;4968189;28;19983;-55
2023/01/29 01:13:44;;;;;;;;;;;;;;;-0.55;100.00;99627.94;4971191;28;19982;-58
2023/01/29 01:16:13;;;;;;;;;;;;;;;-0.62;100.00;99625.97;4969291;28;20451;-55
2023/01/29 01:18:39;;;;;;;;;;;;;;;-0.65;100.00;99628.38;4985352;28;20495;-55
2023/01/29 01:21:04;;;;;;;;;;;;;;;-0.70;100.00;99625.66;4971188;28;19985;-54
2023/01/29 01:23:30;;;;;;;;;;;;;;;-0.68;100.00;99624.03;4968911;28;19989;-56
2023/01/29 01:25:55;;;;;;;;;;;;;;;-0.64;100.00;99620.03;4968720;28;19978;-56
2023/01/29 01:28:21;;;;;;;;;;;;;;;-0.65;100.00;99621.69;4970839;28;19986;-57
2023/01/29 01:30:47;;;;;;;;;;;;;;;-0.60;100.00;99625.25;4969502;28;20400;-60
2023/01/29 01:33:12;;;;;;;;;;;;;;;-0.59;100.00;99624.44;4970401;28;20458;-58
2023/01/29 01:35:38;;;;;;;;;;;;;;;-0.55;100.00;99618.72;4967887;28;19946;-55
2023/01/29 01:38:03;;;;;;;;;;;;;;;-0.46;100.00;99618.22;4967682;28;19986;-57
2023/01/29 01:40:29;;;;;;;;;;;;;;;-0.50;100.00;99616.38;4970504;28;20423;-55
2023/01/29 01:42:56;;;;;;;;;;;;;;;-0.63;100.00;99621.72;4971603;28;19975;-58
2023/01/29 01:45:25;;;;;;;;;;;;;;;-0.63;100.00;99619.19;4983626;28;20082;-57
2023/01/29 01:48:06;;;;;;;;;;;;;;;-0.69;100.00;99613.94;4984163;28;20342;-56
2023/01/29 01:50:37;;;;;;;;;;;;;;;-0.74;100.00;99611.22;4983027;28;20029;-55
2023/01/29 01:53:08;;;;;;;;;;;;;;;-0.68;100.00;99613.97;4985193;28;19989;-55
2023/01/29 01:55:35;;;;;;;;;;;;;;;-0.78;100.00;99621.09;4969269;28;19989;-58
2023/01/29 01:58:27;;;;;;;;;;;;;;;-0.76;100.00;99624.53;4984676;28;19978;-56
2023/01/29 02:00:53;;;;;;;;;;;;;;;-0.69;100.00;99629.03;4985727;28;19982;-57
2023/01/29 02:11:42;;;;;;;;;;;;;;;-0.74;100.00;99636.41;4983143;28;19986;-55
2023/01/29 02:14:08;;;;;;;;;;;;;;;-0.75;100.00;99631.28;4987251;28;19995;-54
2023/01/29 02:16:34;;;;;;;;;;;;;;;-0.86;100.00;99635.03;4985547;28;20540;-58
2023/01/29 02:19:04;;;;;;;;;;;;;;;-0.94;100.00;99640.59;4968754;28;19984;-57
2023/01/29 02:21:40;;;;;;;;;;;;;;;-0.86;100.00;99638.41;4984583;28;20452;-54
2023/01/29 02:24:27;;;;;;;;;;;;;;;-0.88;100.00;99639.13;4986189;28;19997;-55
2023/01/29 02:26:53;;;;;;;;;;;;;;;-0.92;100.00;99633.09;4985080;28;19996;-56
2023/01/29 02:29:26;;;;;;;;;;;;;;;-0.86;100.00;99640.94;4984021;28;19981;-60
2023/01/29 02:32:10;;;;;;;;;;;;;;;-1.03;100.00;99642.72;4969622;28;20013;-54
2023/01/29 02:37:41;;;;;;;;;;;;;;;-1.08;100.00;99643.31;4976994;28;19926;-56
2023/01/29 02:40:19;;;;;;;;;;;;;;;-1.04;100.00;99646.03;4970303;28;19981;-57
2023/01/29 02:42:56;;;;;;;;;;;;;;;-1.07;100.00;99645.91;4983760;28;20040;-56
2023/01/29 02:45:34;;;;;;;;;;;;;;;-1.08;100.00;99646.69;4965856;28;20097;-58
2023/01/29 02:48:00;;;;;;;;;;;;;;;-1.08;100.00;99646.69;4983775;28;20089;-56
2023/01/29 02:50:53;;;;;;;;;;;;;;;-1.15;100.00;99644.72;4983213;28;20041;-58
2023/01/29 02:53:39;;;;;;;;;;;;;;;-1.11;100.00;99643.19;4984088;28;19983;-56
2023/01/29 02:56:07;;;;;;;;;;;;;;;-1.18;100.00;99639.53;4967719;28;19974;-54
2023/01/29 02:58:56;;;;;;;;;;;;;;;-1.05;100.00;99636.75;4968054;28;20446;-57
2023/01/29 03:01:38;;;;;;;;;;;;;;;-1.07;100.00;99647.56;4969423;28;19990;-55
2023/01/29 03:04:10;;;;;;;;;;;;;;;-1.12;100.00;99651.53;4968537;28;20041;-57
2023/01/29 03:06:42;;;;;;;;;;;;;;;-1.20;100.00;99648.69;4968846;28;20307;-55
2023/01/29 03:09:43;;;;;;;;;;;;;;;-1.22;100.00;99660.31;4983090;28;19989;-58
2023/01/29 03:12:27;;;;;;;;;;;;;;;-1.25;100.00;99651.78;4965328;28;20164;-56
2023/01/29 03:15:10;;;;;;;;;;;;;;;-1.22;100.00;99650.25;4937031;28;20425;-56
2023/01/29 03:17:40;;;;;;;;;;;;;;;-1.12;100.00;99657.44;4950385;28;19989;-57
2023/01/29 03:20:12;;;;;;;;;;;;;;;-1.17;100.00;99660.53;4968648;28;19982;-57
2023/01/29 03:22:39;;;;;;;;;;;;;;;-1.16;100.00;99660.59;4955685;28;20777;-55
2023/01/29 03:33:55;;;;;;;;;;;;;;;-1.14;100.00;99663.16;4954938;28;19989;-54
2023/01/29 03:36:36;;;;;;;;;;;;;;;-1.26;100.00;99650.06;4968376;28;20960;-53
2023/01/29 03:39:07;;;;;;;;;;;;;;;-1.23;100.00;99651.03;4969972;28;20100;-53
2023/01/29 03:41:53;;;;;;;;;;;;;;;-1.24;100.00;99656.91;4959170;28;19990;-55
2023/01/29 03:44:39;;;;;;;;;;;;;;;-1.32;100.00;99652.31;4942637;28;20182;-51
2023/01/29 03:47:13;;;;;;;;;;;;;;;-1.22;100.00;99655.28;4962282;28;19985;-56
2023/01/29 03:49:45;;;;;;;;;;;;;;;-1.21;100.00;99659.53;4989195;28;19982;-53
2023/01/29 03:52:20;;;;;;;;;;;;;;;-1.24;100.00;99656.91;4988447;28;19978;-56
2023/01/29 03:55:09;;;;;;;;;;;;;;;-1.24;100.00;99651.00;4988392;28;19993;-58
2023/01/29 03:57:41;;;;;;;;;;;;;;;-1.29;100.00;99645.75;4988671;28;19982;-53
2023/01/29 04:00:20;;;;;;;;;;;;;;;-1.29;100.00;99645.75;4977835;28;20451;-56
2023/01/29 04:02:57;;;;;;;;;;;;;;;-0.99;100.00;99647.09;4988889;28;19982;-55
2023/01/29 04:05:26;;;;;;;;;;;;;;;-0.55;100.00;99643.91;4988592;28;19994;-55
2023/01/29 04:08:26;;;;;;;;;;;;;;;-0.79;100.00;99631.97;4973137;28;19983;-56
2023/01/29 04:10:55;;;;;;;;;;;;;;;-0.83;100.00;99627.59;4988200;28;20510;-56
2023/01/29 04:13:22;;;;;;;;;;;;;;;-0.49;100.00;99618.97;4971883;28;19993;-56
2023/01/29 04:15:57;;;;;;;;;;;;;;;-0.37;100.00;99623.63;4988688;28;20048;-55
2023/01/29 04:18:58;;;;;;;;;;;;;;;-0.48;100.00;99622.34;4975309;28;20365;-56
2023/01/29 04:21:30;;;;;;;;;;;;;;;-0.56;100.00;99623.72;4963040;28;19990;-55
2023/01/29 04:23:56;;;;;;;;;;;;;;;-0.63;100.00;99614.16;4973883;28;20008;-56
2023/01/29 04:26:40;;;;;;;;;;;;;;;-0.68;100.00;99615.66;4961946;28;19986;-56
2023/01/29 04:29:25;;;;;;;;;;;;;;;-0.56;100.00;99606.94;4974323;28;20452;-56
2023/01/29 04:32:14;;;;;;;;;;;;;;;-0.64;100.00;99612.47;4962696;28;20588;-57
2023/01/29 04:34:57;;;;;;;;;;;;;;;-0.72;100.00;99606.25;4961921;28;20001;-55
2023/01/29 04:37:23;;;;;;;;;;;;;;;-0.62;100.00;99606.69;4979314;28;20035;-55
2023/01/29 04:39:55;;;;;;;;;;;;;;;-0.68;100.00;99613.97;4958192;28;19981;-55
2023/01/29 04:42:35;;;;;;;;;;;;;;;-0.57;100.00;99606.88;4973869;28;20054;-55
2023/01/29 04:45:05;;;;;;;;;;;;;;;-0.52;100.00;99597.84;4974080;28;20089;-55
2023/01/29 04:47:47;;;;;;;;;;;;;;;-0.58;100.00;99602.63;4973016;28;20001;-56
2023/01/29 04:50:15;;;;;;;;;;;;;;;-0.37;100.00;99607.66;4974667;28;20519;-55
2023/01/29 04:52:47;;;;;;;;;;;;;;;0.06;100.00;99611.06;4972744;28;19974;-54
2023/01/29 04:55:22;;;;;;;;;;;;;;;-0.14;100.00;99612.81;4970440;28;20177;-54
2023/01/29 04:57:50;;;;;;;;;;;;;;;-0.44;100.00;99609.09;4968670;28;20095;-54
2023/01/29 05:00:23;;;;;;;;;;;;;;;-0.46;100.00;99615.72;4971525;28;20029;-54
2023/01/29 05:02:49;;;;;;;;;;;;;;;-0.78;100.00;99627.00;4971157;28;20029;-54
2023/01/29 05:05:17;;;;;;;;;;;;;;;-0.81;100.00;99631.06;4972209;28;19999;-56
2023/01/29 05:07:44;;;;;;;;;;;;;;;-0.89;100.00;99638.25;4985773;28;19930;-53
2023/01/29 05:10:11;;;;;;;;;;;;;;;-1.08;100.00;99639.16;4971548;28;19986;-55
2023/01/29 05:12:37;;;;;;;;;;;;;;;-1.04;100.00;99632.59;4971029;28;19982;-55
2023/01/29 05:15:06;;;;;;;;;;;;;;;-1.05;100.00;99639.28;4972111;28;20017;-54
2023/01/29 05:17:31;;;;;;;;;;;;;;;-1.14;100.00;99630.47;4971482;28;19989;-55
2023/01/29 05:19:57;;;;;;;;;;;;;;;-1.21;100.00;99629.34;4986901;28;20073;-53
2023/01/29 05:22:23;;;;;;;;;;;;;;;-1.18;100.00;99632.00;4971749;28;19998;-55
2023/01/29 05:24:49;;;;;;;;;;;;;;;-1.20;100.00;99625.19;4971926;28;20476;-56
2023/01/29 05:30:01;;;;;;;;;;;;;;;-1.25;100.00;99636.69;4970844;28;19985;-54
2023/01/29 05:32:27;;;;;;;;;;;;;;;-1.36;100.00;99635.38;4971939;28;19975;-55
2023/01/29 05:34:52;;;;;;;;;;;;;;;-1.38;100.00;99635.31;4971851;28;20576;-57
2023/01/29 05:37:18;;;;;;;;;;;;;;;-1.37;100.00;99632.00;4970854;28;19978;-56
2023/01/29 05:39:44;;;;;;;;;;;;;;;-1.33;100.00;99633.00;4972118;28;20330;-55
2023/01/29 05:42:09;;;;;;;;;;;;;;;-1.46;100.00;99626.56;4972076;28;20010;-58
2023/01/29 05:44:34;;;;;;;;;;;;;;;-1.40;100.00;99625.16;4969882;28;20440;-52
2023/01/29 05:47:01;;;;;;;;;;;;;;;-1.43;100.00;99625.03;4967933;28;20096;-54
2023/01/29 05:49:27;;;;;;;;;;;;;;;-1.42;100.00;99618.34;4971597;28;20002;-55
2023/01/29 05:51:53;;;;;;;;;;;;;;;-1.48;100.00;99628.13;4970105;28;19996;-54
2023/01/29 05:54:18;;;;;;;;;;;;;;;-1.45;100.00;99620.75;4973501;28;20020;-52
2023/01/29 05:56:44;;;;;;;;;;;;;;;-1.45;100.00;99620.75;4971525;28;20025;-55
2023/01/29 05:59:09;;;;;;;;;;;;;;;-1.50;100.00;99624.72;4971466;28;20085;-55
2023/01/29 06:01:35;;;;;;;;;;;;;;;-1.60;100.00;99622.56;4971360;28;20434;-55
2023/01/29 06:04:00;;;;;;;;;;;;;;;-1.63;100.00;99627.47;4971627;28;20092;-53
2023/01/29 06:06:26;;;;;;;;;;;;;;;-1.68;100.00;99621.34;4970139;28;20025;-55
2023/01/29 06:08:51;;;;;;;;;;;;;;;-1.70;100.00;99621.31;4971407;28;20097;-56
2023/01/29 06:11:17;;;;;;;;;;;;;;;-1.69;100.00;99627.16;4970420;28;20430;-55
2023/01/29 06:13:43;;;;;;;;;;;;;;;-1.70;100.00;99625.47;4971908;28;19990;-56
2023/01/29 06:16:09;;;;;;;;;;;;;;;-1.70;100.00;99617.94;4973304;28;20051;-56
2023/01/29 06:18:35;;;;;;;;;;;;;;;-1.64;100.00;99614.03;4970644;28;20014;-55
2023/01/29 06:21:01;;;;;;;;;;;;;;;-1.72;100.00;99602.78;4968227;28;19978;-56
2023/01/29 06:23:27;;;;;;;;;;;;;;;-1.70;100.00;99598.69;4981213;28;19990;-58
2023/01/29 06:25:52;;;;;;;;;;;;;;;-1.73;100.00;99600.19;4968847;28;20639;-53
2023/01/29 06:28:18;;;;;;;;;;;;;;;-1.66;100.00;99603.06;4969166;28;19982;-55
2023/01/29 06:30:43;;;;;;;;;;;;;;;-1.61;100.00;99593.22;4970121;28;19987;-54
2023/01/29 06:33:09;;;;;;;;;;;;;;;-1.69;100.00;99597.00;4968670;28;19989;-55
2023/01/29 06:35:34;;;;;;;;;;;;;;;-1.64;100.00;99598.09;4967907;28;20418;-54
2023/01/29 06:38:00;;;;;;;;;;;;;;;-1.66;100.00;99602.19;4971964;28;20228;-55
2023/01/29 06:40:25;;;;;;;;;;;;;;;-1.69;100.00;99599.53;4968866;28;19986;-57
2023/01/29 06:42:51;;;;;;;;;;;;;;;-1.65;100.00;99602.25;4986067;28;19982;-56
2023/01/29 06:45:16;;;;;;;;;;;;;;;-1.75;100.00;99601.78;4968746;28;20109;-57
2023/01/29 06:47:42;;;;;;;;;;;;;;;-1.73;100.00;99606.06;4970492;28;20002;-54
2023/01/29 06:50:07;;;;;;;;;;;;;;;-1.67;100.00;99608.00;4970610;28;20026;-55
2023/01/29 06:52:33;;;;;;;;;;;;;;;-1.69;100.00;99604.56;4970937;28;20116;-54
2023/01/29 06:55:01;;;;;;;;;;;;;;;-1.74;100.00;99606.84;4974667;28;19982;-57
2023/01/29 06:57:30;;;;;;;;;;;;;;;-1.72;100.00;99604.41;4973100;28;20775;-54
2023/01/29 06:59:55;;;;;;;;;;;;;;;-1.75;100.00;99616.84;4971852;28;19979;-56
2023/01/29 07:02:20;;;;;;;;;;;;;;;-1.83;100.00;99625.72;4971548;28;19993;-55
2023/01/29 07:04:46;;;;;;;;;;;;;;;-1.68;100.00;99622.22;4972710;28;20475;-56
2023/01/29 07:07:12;;;;;;;;;;;;;;;-1.63;100.00;99614.91;4970884;28;19985;-55
2023/01/29 07:09:41;;;;;;;;;;;;;;;-1.74;100.00;99611.06;4969210;28;19987;-54
2023/01/29 07:12:07;;;;;;;;;;;;;;;-1.70;100.00;99610.41;4971944;28;19986;-59
2023/01/29 07:14:33;;;;;;;;;;;;;;;-1.64;100.00;99618.19;4974437;28;20025;-53
2023/01/29 07:16:58;;;;;;;;;;;;;;;-1.80;100.00;99618.31;4976042;28;20035;-57
2023/01/29 07:19:24;;;;;;;;;;;;;;;-1.94;100.00;99626.06;4989378;28;20059;-55
2023/01/29 07:21:49;;;;;;;;;;;;;;;-1.98;100.00;99626.72;4975772;28;20076;-57
2023/01/29 07:24:15;;;;;;;;;;;;;;;-1.94;100.00;99622.69;4975084;28;20005;-57
2023/01/29 07:26:40;;;;;;;;;;;;;;;-1.99;100.00;99622.47;4976300;28;20076;-56
2023/01/29 07:29:07;;;;;;;;;;;;;;;-2.02;100.00;99619.84;4973110;28;19982;-58
2023/01/29 07:31:32;;;;;;;;;;;;;;;-2.00;100.00;99617.41;4971553;28;20004;-55
2023/01/29 07:33:58;;;;;;;;;;;;;;;-1.97;100.00;99622.56;4972745;28;20010;-54
2023/01/29 07:36:23;;;;;;;;;;;;;;;-1.99;100.00;99625.00;4971724;28;19990;-54
2023/01/29 07:38:49;;;;;;;;;;;;;;;-1.92;100.00;99622.00;4971562;28;19982;-54
2023/01/29 07:41:14;;;;;;;;;;;;;;;-1.92;100.00;99611.06;4971435;28;19986;-55
2023/01/29 07:43:43;;;;;;;;;;;;;;;-1.92;100.00;99606.91;4990366;28;20441;-54
2023/01/29 07:46:09;;;;;;;;;;;;;;;-1.87;100.00;99612.97;4978069;28;20064;-61
2023/01/29 07:48:35;;;;;;;;;;;;;;;-1.86;100.00;99613.84;4974416;28;20778;-61
2023/01/29 07:51:00;;;;;;;;;;;;;;;-1.83;100.00;99613.16;4975131;28;19993;-54
2023/01/29 07:53:28;;;;;;;;;;;;;;;-1.63;100.00;99614.91;4975721;28;20090;-58
2023/01/29 07:55:54;;;;;;;;;;;;;;;-1.47;100.00;99613.13;4974412;28;20505;-55
2023/01/29 07:58:19;;;;;;;;;;;;;;;-1.67;100.00;99603.84;4973416;28;20009;-55
2023/01/29 08:00:45;;;;;;;;;;;;;;;-1.64;100.00;99601.47;4971735;28;19986;-58
2023/01/29 08:03:12;;;;;;;;;;;;;;;-1.76;100.00;99600.91;4971826;28;19982;-57
2023/01/29 08:05:37;;;;;;;;;;;;;;;-1.75;100.00;99606.81;4970508;28;20555;-57
2023/01/29 08:08:03;;;;;;;;;;;;;;;-1.84;100.00;99609.75;4971349;28;20192;-57
2023/01/29 08:10:29;;;;;;;;;;;;;;;-1.62;100.00;99614.97;4970460;28;20726;-59
2023/01/29 08:12:55;;;;;;;;;;;;;;;-1.79;100.00;99608.31;4971572;28;20013;-58
2023/01/29 08:15:20;;;;;;;;;;;;;;;-1.83;100.00;99613.16;4967481;28;20172;-56
2023/01/29 08:17:46;;;;;;;;;;;;;;;-1.90;100.00;99612.84;4969581;28;19989;-57
2023/01/29 08:20:11;;;;;;;;;;;;;;;-1.68;100.00;99611.31;4970752;28;20138;-56
2023/01/29 08:22:37;;;;;;;;;;;;;;;-1.71;100.00;99622.09;4984529;28;20036;-55
2023/01/29 08:25:02;;;;;;;;;;;;;;;-1.60;100.00;99620.06;4970958;28;20005;-56
2023/01/29 08:27:28;;;;;;;;;;;;;;;-1.48;100.00;99621.44;4968973;28;19989;-57
2023/01/29 08:29:53;;;;;;;;;;;;;;;-1.35;100.00;99614.44;4968420;28;20033;-57
2023/01/29 08:32:19;;;;;;;;;;;;;;;-1.51;100.00;99613.78;4969855;28;19982;-60
2023/01/29 08:34:44;;;;;;;;;;;;;;;-1.51;100.00;99617.94;4972711;28;20049;-57
2023/01/29 08:37:10;;;;;;;;;;;;;;;-1.33;100.00;99616.25;4970787;28;20328;-58
2023/01/29 08:39:35;;;;;;;;;;;;;;;-1.31;100.00;99617.16;4972356;28;19990;-59
2023/01/29 08:42:01;;;;;;;;;;;;;;;-1.16;100.00;99617.84;4970681;28;19998;-58
2023/01/29 08:44:26;;;;;;;;;;;;;;;-1.11;100.00;99613.88;4970867;28;20401;-58
2023/01/29 08:46:52;;;;;;;;;;;;;;;-1.23;100.00;99622.53;4971807;28;20014;-56
2023/01/29 08:49:17;;;;;;;;;;;;;;;-1.11;100.00;99628.09;4970560;28;20006;-57
2023/01/29 08:51:43;;;;;;;;;;;;;;;-1.21;100.00;99629.34;4971368;28;20081;-59
2023/01/29 08:54:08;;;;;;;;;;;;;;;-1.13;100.00;99633.06;4972565;28;19986;-58
2023/01/29 08:56:34;;;;;;;;;;;;;;;-1.11;100.00;99636.50;4970986;28;19983;-58
2023/01/29 08:58:59;;;;;;;;;;;;;;;-1.10;100.00;99634.81;4969041;28;20404;-60
2023/01/29 09:01:25;;;;;;;;;;;;;;;-0.66;100.00;99644.25;4970453;28;20573;-58
2023/01/29 09:03:51;;;;;;;;;;;;;;;0.10;100.00;99634.72;4970308;28;20502;-58
2023/01/29 09:06:17;;;;;;;;;;;;;;;-0.37;100.00;99631.19;4985438;28;19990;-57
2023/01/29 09:08:42;;;;;;;;;;;;;;;-0.22;100.00;99641.91;4970495;28;20127;-57
2023/01/29 09:11:09;;;;;;;;;;;;;;;-0.17;100.00;99650.47;4970786;28;20105;-55
2023/01/29 09:13:34;;;;;;;;;;;;;;;0.37;100.00;99649.25;4970280;28;19999;-55
2023/01/29 09:16:01;;;;;;;;;;;;;;;-0.08;100.00;99645.81;4970015;28;19990;-57
2023/01/29 09:18:27;;;;;;;;;;;;;;;-0.04;100.00;99649.28;4962471;28;20029;-59
2023/01/29 09:20:52;;;;;;;;;;;;;;;-0.15;100.00;99653.06;4982123;28;20082;-59
2023/01/29 09:23:18;;;;;;;;;;;;;;;-0.28;100.00;99651.72;4970689;28;19986;-59
2023/01/29 09:25:44;;;;;;;;;;;;;;;0.37;100.00;99645.84;4969965;28;19994;-57
2023/01/29 09:28:09;;;;;;;;;;;;;;;0.09;100.00;99646.47;4978968;28;19975;-61
2023/01/29 09:30:36;;;;;;;;;;;;;;;0.04;100.00;99647.97;4967979;28;19978;-59
2023/01/29 09:33:06;;;;;;;;;;;;;;;0.41;100.00;99632.56;4969358;28;20520;-58
2023/01/29 09:35:32;;;;;;;;;;;;;;;0.63;100.00;99642.63;4971505;28;19995;-58
2023/01/29 09:37:58;;;;;;;;;;;;;;;0.62;100.00;99638.38;4988003;28;20442;-66
2023/01/29 09:40:25;;;;;;;;;;;;;;;0.82;100.00;99644.13;4986709;28;19989;-59
2023/01/29 09:42:56;;;;;;;;;;;;;;;1.07;100.00;99648.38;4972716;28;19982;-57
2023/01/29 09:45:23;;;;;;;;;;;;;;;0.74;100.00;99643.88;4970733;28;20005;-57
2023/01/29 09:47:49;;;;;;;;;;;;;;;0.91;100.00;99647.84;4980077;28;20009;-58
2023/01/29 09:50:20;;;;;;;;;;;;;;;0.46;100.00;99648.72;4967783;28;19999;-59
2023/01/29 09:52:57;;;;;;;;;;;;;;;0.17;100.00;99641.72;4968572;28;19978;-58
2023/01/29 09:55:25;;;;;;;;;;;;;;;0.23;100.00;99647.84;4971835;28;20870;-58
2023/01/29 09:57:54;;;;;;;;;;;;;;;0.74;100.00;99640.50;4970630;28;19982;-58
2023/01/29 10:00:26;;;;;;;;;;;;;;;0.52;100.00;99646.41;4971155;28;19977;-58
2023/01/29 10:02:59;;;;;;;;;;;;;;;0.26;100.00;99635.34;4970169;28;19982;-55
2023/01/29 10:05:32;;;;;;;;;;;;;;;0.24;100.00;99646.19;4972106;28;19998;-59
2023/01/29 10:08:16;;;;;;;;;;;;;;;0.25;100.00;99655.50;4971760;28;20288;-58
2023/01/29 10:10:44;;;;;;;;;;;;;;;-0.12;100.00;99646.47;4972381;28;20011;-59
2023/01/29 10:13:29;;;;;;;;;;;;;;;-0.02;100.00;99648.56;4985640;28;20217;-56
2023/01/29 10:16:13;;;;;;;;;;;;;;;0.03;100.00;99645.38;4972319;28;19982;-61
2023/01/29 10:18:50;;;;;;;;;;;;;;;0.00;100.00;99641.91;4971233;28;20040;-56
2023/01/29 10:21:28;;;;;;;;;;;;;;;-0.13;100.00;99642.22;4970239;28;19982;-55
2023/01/29 10:24:11;;;;;;;;;;;;;;;-0.18;100.00;99626.09;4968217;28;19982;-57
2023/01/29 10:26:39;;;;;;;;;;;;;;;0.10;100.00;99627.16;4984319;28;19975;-58
2023/01/29 10:29:06;;;;;;;;;;;;;;;0.37;100.00;99630.72;4974204;28;19977;-55
2023/01/29 10:31:35;;;;;;;;;;;;;;;0.21;100.00;99625.91;4977366;28;19978;-58
2023/01/29 10:34:13;;;;;;;;;;;;;;;0.29;100.00;99627.06;4973466;28;20498;-56
2023/01/29 10:36:43;;;;;;;;;;;;;;;0.67;100.00;99631.00;4974025;28;20033;-57
2023/01/29 10:39:17;;;;;;;;;;;;;;;0.48;100.00;99624.41;4972524;28;19974;-56
2023/01/29 10:41:54;;;;;;;;;;;;;;;0.75;100.00;99622.88;4990558;28;20018;-56
2023/01/29 10:44:20;;;;;;;;;;;;;;;1.00;100.00;99617.03;4976868;28;20014;-58
2023/01/29 10:46:55;;;;;;;;;;;;;;;0.89;100.00;99609.06;4973814;28;19982;-56
2023/01/29 10:49:20;;;;;;;;;;;;;;;0.77;100.00;99600.22;4974442;28;20013;-58
2023/01/29 10:52:05;;;;;;;;;;;;;;;1.17;100.00;99602.44;4971411;28;20445;-59
2023/01/29 10:54:48;;;;;;;;;;;;;;;1.09;100.00;99603.88;4973753;28;19982;-57
2023/01/29 10:57:33;;;;;;;;;;;;;;;1.03;100.00;99596.94;4974645;28;20553;-61
2023/01/29 11:00:09;;;;;;;;;;;;;;;1.31;100.00;99596.22;4989834;28;20029;-63
2023/01/29 11:02:34;;;;;;;;;;;;;;;1.44;100.00;99587.34;4971571;28;20053;-58
2023/01/29 11:05:00;;;;;;;;;;;;;;;1.66;100.00;99577.97;4970345;28;20139;-56
2023/01/29 11:07:26;;;;;;;;;;;;;;;1.99;100.00;99587.41;4973612;28;20069;-57
2023/01/29 11:09:56;;;;;;;;;;;;;;;1.41;100.00;99582.19;4974846;28;19986;-56
2023/01/29 11:12:25;;;;;;;;;;;;;;;1.92;100.00;99588.03;4967934;28;20016;-58
2023/01/29 11:15:06;;;;;;;;;;;;;;;2.35;100.00;99572.44;4974134;28;20503;-59
2023/01/29 11:17:31;;;;;;;;;;;;;;;2.39;100.00;99575.09;4988102;28;20122;-58
2023/01/29 11:19:57;;;;;;;;;;;;;;;2.67;100.00;99564.94;4974302;28;19961;-58
2023/01/29 11:22:22;;;;;;;;;;;;;;;3.04;100.00;99559.19;4972423;28;20461;-60
2023/01/29 11:25:08;;;;;;;;;;;;;;;3.02;100.00;99554.88;4970810;28;19929;-57
2023/01/29 11:27:42;;;;;;;;;;;;;;;3.07;100.00;99536.44;4972720;28;19926;-59
2023/01/29 11:30:14;;;;;;;;;;;;;;;3.22;100.00;99539.34;4973678;28;20482;-57
2023/01/29 11:32:39;;;;;;;;;;;;;;;3.33;100.00;99529.50;4971904;28;19930;-58
2023/01/29 11:35:14;;;;;;;;;;;;;;;3.38;100.00;99522.00;4971391;28;19930;-57
2023/01/29 11:37:41;;;;;;;;;;;;;;;3.28;100.00;99515.00;4970391;28;19925;-57
2023/01/29 11:40:26;;;;;;;;;;;;;;;3.39;100.00;99516.13;4970318;28;20386;-62
2023/01/29 11:42:52;;;;;;;;;;;;;;;2.79;100.00;99512.91;4986580;28;19977;-57
2023/01/29 11:45:18;;;;;;;;;;;;;;;2.37;100.00;99512.63;4972373;28;20105;-60
2023/01/29 11:47:48;;;;;;;;;;;;;;;2.44;100.00;99504.38;4972267;28;19984;-56
2023/01/29 11:50:20;;;;;;;;;;;;;;;2.00;100.00;99516.63;4969940;28;19958;-54
2023/01/29 11:52:45;;;;;;;;;;;;;;;2.00;100.00;99501.47;5028615;28;19979;-58
2023/01/29 11:55:14;;;;;;;;;;;;;;;1.60;100.00;99496.94;5033146;28;19969;-58
2023/01/29 11:57:41;;;;;;;;;;;;;;;1.70;100.00;99498.03;5030882;28;20625;-57
2023/01/29 12:00:18;;;;;;;;;;;;;;;1.66;100.00;99491.19;5033497;28;20041;-60
2023/01/29 12:02:46;;;;;;;;;;;;;;;1.72;100.00;99493.91;5032459;28;20041;-59
2023/01/29 12:05:19;;;;;;;;;;;;;;;1.84;100.00;99484.16;5032201;28;20006;-57
2023/01/29 12:07:50;;;;;;;;;;;;;;;2.03;100.00;99486.41;5032189;28;19955;-56
2023/01/29 12:10:32;;;;;;;;;;;;;;;1.66;100.00;99476.00;5032736;28;20905;-56
2023/01/29 12:13:18;;;;;;;;;;;;;;;1.41;100.00;99474.41;5032548;28;20502;-56
2023/01/29 12:15:45;;;;;;;;;;;;;;;1.22;100.00;99459.53;5036592;28;20008;-58
2023/01/29 12:18:13;;;;;;;;;;;;;;;1.18;100.00;99458.56;5031605;28;20040;-58
2023/01/29 12:20:41;;;;;;;;;;;;;;;0.86;100.00;99464.25;5032857;28;19983;-55
2023/01/29 12:23:22;;;;;;;;;;;;;;;0.87;100.00;99479.44;5034280;28;20011;-55
2023/01/29 12:25:55;;;;;;;;;;;;;;;0.83;100.00;99467.53;5033025;28;20442;-56
2023/01/29 12:28:26;;;;;;;;;;;;;;;0.88;100.00;99458.47;5032185;28;19952;-59
2023/01/29 12:31:11;;;;;;;;;;;;;;;1.02;100.00;99445.44;5032466;28;20023;-56
2023/01/29 12:33:51;;;;;;;;;;;;;;;1.02;100.00;99446.25;5030775;28;19968;-57
2023/01/29 12:36:29;;;;;;;;;;;;;;;0.87;100.00;99449.16;5030604;28;20146;-55
2023/01/29 12:38:54;;;;;;;;;;;;;;;0.93;100.00;99441.78;5031429;28;19957;-55
2023/01/29 12:41:42;;;;;;;;;;;;;;;0.98;100.00;99448.66;5028438;28;20405;-57
2023/01/29 12:44:20;;;;;;;;;;;;;;;0.94;100.00;99442.63;5032697;28;20027;-55
2023/01/29 12:46:49;;;;;;;;;;;;;;;1.05;100.00;99438.81;5030843;28;20013;-58
2023/01/29 12:49:18;;;;;;;;;;;;;;;0.83;100.00;99444.81;5031618;28;19985;-56
2023/01/29 12:51:53;;;;;;;;;;;;;;;0.64;100.00;99436.59;5031090;28;19952;-56
2023/01/29 12:54:24;;;;;;;;;;;;;;;0.82;100.00;99435.53;5028921;28;19983;-56
2023/01/29 12:56:55;;;;;;;;;;;;;;;0.91;100.00;99430.78;5031355;28;20531;-56
2023/01/29 12:59:27;;;;;;;;;;;;;;;0.98;100.00;99425.94;5039870;28;20366;-56
2023/01/29 13:02:03;;;;;;;;;;;;;;;1.16;100.00;99423.97;5029982;28;19953;-58
2023/01/29 13:04:47;;;;;;;;;;;;;;;1.31;100.00;99420.25;5032789;28;19969;-57
2023/01/29 13:07:18;;;;;;;;;;;;;;;1.50;100.00;99411.53;5012874;28;20329;-51
2023/01/29 13:09:47;;;;;;;;;;;;;;;0.90;100.00;99416.44;5029542;28;19957;-58
2023/01/29 13:12:15;;;;;;;;;;;;;;;0.93;100.00;99414.00;5029374;28;19994;-61
2023/01/29 13:14:43;;;;;;;;;;;;;;;0.91;100.00;99415.63;5032466;28;20371;-56
2023/01/29 13:17:28;;;;;;;;;;;;;;;0.90;100.00;99413.91;5032784;28;20001;-59
2023/01/29 13:19:57;;;;;;;;;;;;;;;0.75;100.00;99410.91;5003051;28;19974;-59
2023/01/29 13:22:24;;;;;;;;;;;;;;;0.77;100.00;99411.81;5030460;28;20442;-56
2023/01/29 13:24:50;;;;;;;;;;;;;;;0.54;100.00;99405.19;5030384;28;19973;-59
2023/01/29 13:27:27;;;;;;;;;;;;;;;0.51;100.00;99406.75;5027924;28;19977;-60